Time;durP1;ratioP1;P1;durP2;ratioP2;P2;SDS_P1;SDS_P2;PMS_P1;PMS_P2;Temp;Humidity;BMP_temperature;BMP_pressure;BME280_temperature;BME280_humidity;BME280_pressure;Samples;Min_cycle;Max_cycle;Signal;HPM_P1;HPM_P2
2021/05/05 00:03:14;;;;;;;3.7;1.6;;;;;;;13.55;49.1582;97435.13;;;;
2021/05/05 00:13:13;;;;;;;3;1.6;;;;;;;13.38;50.07617;97426.63;;;;
2021/05/05 00:23:12;;;;;;;3.2;1.9;;;;;;;13.34;51.14746;97423.05;;;;
2021/05/05 00:33:11;;;;;;;2.6;1.9;;;;;;;13.32;51.99316;97412.59;;;;
2021/05/05 00:43:11;;;;;;;6.5;1.9;;;;;;;13.25;51.50293;97411.66;;;;
2021/05/05 00:53:10;;;;;;;8.2;2.4;;;;;;;13.34;51.43457;97418.43;;;;
2021/05/05 01:03:09;;;;;;;3.3;1.7;;;;;;;13.4;52.21875;97410.8;;;;
2021/05/05 01:13:08;;;;;;;2.9;1.5;;;;;;;13.44;52.78418;97406.26;;;;
2021/05/05 01:23:07;;;;;;;5.1;2;;;;;;;13.53;52.63477;97390.61;;;;
2021/05/05 01:33:06;;;;;;;4.3;2.4;;;;;;;13.5;53.25;97375.84;;;;
2021/05/05 01:43:06;;;;;;;4.2;2.3;;;;;;;13.23;54.71484;97376.81;;;;
2021/05/05 01:53:04;;;;;;;3.7;1.8;;;;;;;13;55.78125;97365.86;;;;
2021/05/05 02:03:03;;;;;;;4.5;2.1;;;;;;;12.86;56.92871;97360.14;;;;
2021/05/05 02:13:02;;;;;;;5.8;2.4;;;;;;;12.77;58.31738;97356.06;;;;
2021/05/05 02:23:01;;;;;;;5;2.4;;;;;;;12.57;59.74023;97352.48;;;;
2021/05/05 02:33:00;;;;;;;3.4;2.1;;;;;;;12.49;58.44141;97346.15;;;;
2021/05/05 02:42:59;;;;;;;4.3;2.2;;;;;;;12.56;57.45898;97324.67;;;;
2021/05/05 02:52:58;;;;;;;3.8;2;;;;;;;12.54;58.57227;97318.05;;;;
2021/05/05 03:02:57;;;;;;;3.4;2;;;;;;;12.72;56.97754;97315.77;;;;
2021/05/05 03:12:56;;;;;;;3.8;1.9;;;;;;;12.85;56.40137;97325.32;;;;
2021/05/05 03:22:56;;;;;;;5.9;2.5;;;;;;;12.79;56.31348;97305.9;;;;
2021/05/05 03:32:57;;;;;;;3.9;2.1;;;;;;;12.6;57.91992;97300.42;;;;
2021/05/05 03:42:57;;;;;;;4.4;2.1;;;;;;;12.67;56.85742;97292.48;;;;
2021/05/05 03:52:52;;;;;;;5.2;2.2;;;;;;;12.83;56.23926;97301.36;;;;
2021/05/05 04:02:51;;;;;;;6.6;2.1;;;;;;;13.02;55.21289;97306.78;;;;
2021/05/05 04:12:50;;;;;;;5.5;2.2;;;;;;;13.06;55.40039;97306.86;;;;
2021/05/05 04:22:49;;;;;;;4.7;2.1;;;;;;;13.24;53.99414;97307.27;;;;
2021/05/05 04:32:48;;;;;;;3.8;1.9;;;;;;;13.33;54.44043;97315.97;;;;
2021/05/05 04:42:47;;;;;;;8.3;4.1;;;;;;;13.37;55.18848;97314.09;;;;
2021/05/05 04:52:46;;;;;;;7.2;3;;;;;;;13.42;56.56641;97314.61;;;;
2021/05/05 05:02:45;;;;;;;4.4;2.5;;;;;;;13.52;57.40234;97318.66;;;;
2021/05/05 05:12:45;;;;;;;5.7;3;;;;;;;13.75;55.60254;97324.9;;;;
2021/05/05 05:22:44;;;;;;;7.2;3;;;;;;;13.9;55.1748;97328.66;;;;
2021/05/05 05:32:43;;;;;;;5.5;2.4;;;;;;;13.96;56.17773;97343.47;;;;
2021/05/05 05:42:42;;;;;;;5.9;3;;;;;;;14.17;59.71777;97341.14;;;;
2021/05/05 05:52:41;;;;;;;6.6;2.5;;;;;;;14.36;58.26758;97337.63;;;;
2021/05/05 06:02:40;;;;;;;5.4;2.6;;;;;;;14.58;55.47754;97355.79;;;;
2021/05/05 06:12:40;;;;;;;6;2.2;;;;;;;14.92;53.18066;97338.52;;;;
2021/05/05 06:22:39;;;;;;;4.7;2.9;;;;;;;15.32;55.11328;97332.45;;;;
2021/05/05 06:32:38;;;;;;;4.8;2.8;;;;;;;15.89;50.35156;97328.52;;;;
2021/05/05 06:42:38;;;;;;;3.4;2.1;;;;;;;16.03;48.15723;97306.91;;;;
2021/05/05 06:52:37;;;;;;;3.1;1.9;;;;;;;17.05;49.13379;97292.53;;;;
2021/05/05 07:02:37;;;;;;;5.8;2.8;;;;;;;17.22;45.53516;97285.6;;;;
2021/05/05 07:12:36;;;;;;;4.6;2.2;;;;;;;16.76;45.78906;97267.11;;;;
2021/05/05 07:22:36;;;;;;;4.4;2.2;;;;;;;16.87;45.48828;97262.48;;;;
2021/05/05 07:32:35;;;;;;;4.9;2.2;;;;;;;17;44.27637;97250.14;;;;
2021/05/05 07:52:34;;;;;;;5.7;2.2;;;;;;;16.87;43.43066;97234.52;;;;
2021/05/05 08:02:34;;;;;;;5.5;2.3;;;;;;;16.85;44.28418;97236.83;;;;
2021/05/05 08:12:33;;;;;;;2.8;1.5;;;;;;;16.82;45.07813;97210.38;;;;
2021/05/05 08:22:33;;;;;;;5;1.9;;;;;;;17.08;46.14551;97208.16;;;;
2021/05/05 08:32:32;;;;;;;5.9;2.3;;;;;;;17.11;44.17188;97201.19;;;;
2021/05/05 08:42:32;;;;;;;3.4;2.4;;;;;;;17.2;45.48633;97187.2;;;;
2021/05/05 08:52:31;;;;;;;3.1;1.8;;;;;;;17.54;44.51563;97169.38;;;;
2021/05/05 09:02:31;;;;;;;6.5;2.9;;;;;;;17.58;46.32422;97162.02;;;;
2021/05/05 09:12:31;;;;;;;5.1;2.9;;;;;;;17.78;47.75781;97146.84;;;;
2021/05/05 09:22:30;;;;;;;4.1;2;;;;;;;17.95;47.86816;97139.83;;;;
2021/05/05 09:32:30;;;;;;;4.6;2.6;;;;;;;18.86;43.49805;97121.7;;;;
2021/05/05 09:42:30;;;;;;;4.5;2.1;;;;;;;19.36;41.81445;97105.83;;;;
2021/05/05 09:52:30;;;;;;;7.3;2.1;;;;;;;20.43;39.50098;97090.07;;;;
2021/05/05 10:02:29;;;;;;;4.1;2.3;;;;;;;20.48;41.90918;97081.39;;;;
2021/05/05 10:12:29;;;;;;;3.3;1.6;;;;;;;20.12;38.9834;97077.48;;;;
2021/05/05 10:22:30;;;;;;;5.6;2.3;;;;;;;20.52;36.77734;97052.81;;;;
2021/05/05 10:32:32;;;;;;;5.4;2.4;;;;;;;20.88;36.30371;97063.31;;;;
2021/05/05 10:42:29;;;;;;;3;1.4;;;;;;;21.38;38.79004;97049.7;;;;
2021/05/05 10:52:29;;;;;;;4.2;2;;;;;;;21.69;34.72949;97042.92;;;;
2021/05/05 11:02:30;;;;;;;4.4;1.7;;;;;;;22.05;35.96582;97027.39;;;;
2021/05/05 11:12:30;;;;;;;3.6;2.1;;;;;;;22.34;38.24023;97030.38;;;;
2021/05/05 11:22:33;;;;;;;3.8;1.3;;;;;;;21.93;34.39648;97013.53;;;;
2021/05/05 11:32:31;;;;;;;4;1.2;;;;;;;21.02;35.70703;97008.33;;;;
2021/05/05 11:42:33;;;;;;;3.4;1.8;;;;;;;20.38;35.32813;97027.56;;;;
2021/05/05 11:52:30;;;;;;;4.5;2.3;;;;;;;19.88;39.3125;97044.52;;;;
2021/05/05 12:02:31;;;;;;;11;3.2;;;;;;;19.76;43.30762;97031.34;;;;
2021/05/05 12:12:30;;;;;;;4.3;2.2;;;;;;;19.49;41.85059;97031.2;;;;
2021/05/05 12:22:30;;;;;;;5.5;2.6;;;;;;;19.06;44.12207;97041.63;;;;
2021/05/05 12:32:30;;;;;;;8.5;4.1;;;;;;;17.88;52.69434;97077.92;;;;
2021/05/05 12:42:30;;;;;;;6.8;4;;;;;;;17.05;60.00586;97105.48;;;;
2021/05/05 12:52:31;;;;;;;12.6;5.7;;;;;;;16.24;67.44727;97197.58;;;;
2021/05/05 13:02:31;;;;;;;11.6;5.2;;;;;;;14.46;77.94629;97252.98;;;;
2021/05/05 13:12:31;;;;;;;12.6;6.9;;;;;;;13.22;83.79492;97323.87;;;;
2021/05/05 13:32:26;;;;;;;5.7;3.4;;;;;;;10.97;100;97395.11;;;;
2021/05/05 13:42:25;;;;;;;6.8;3.4;;;;;;;10.76;100;97397.94;;;;
2021/05/05 13:52:24;;;;;;;5.5;3.4;;;;;;;10.65;100;97393.35;;;;
2021/05/05 14:02:22;;;;;;;6.8;3.5;;;;;;;10.64;100;97389.86;;;;
2021/05/05 14:12:21;;;;;;;11.9;5.7;;;;;;;10.84;100;97388.95;;;;
2021/05/05 14:22:20;;;;;;;6.5;3.9;;;;;;;10.72;100;97370.11;;;;
2021/05/05 14:32:19;;;;;;;5.1;3.5;;;;;;;10.51;100;97391.78;;;;
2021/05/05 14:42:21;;;;;;;6.7;3.9;;;;;;;10.78;100;97384.92;;;;
2021/05/05 14:52:19;;;;;;;6.7;4.3;;;;;;;10.57;100;97382.34;;;;
2021/05/05 15:02:15;;;;;;;9.8;6.2;;;;;;;10.7;100;97393.9;;;;
2021/05/05 15:42:11;;;;;;;5.4;3.3;;;;;;;10.23;100;97355.05;;;;
2021/05/05 15:52:09;;;;;;;8.1;3.2;;;;;;;10.26;100;97362.45;;;;
2021/05/05 16:02:36;;;;;;;4.1;2.3;;;;;;;10.21;100;97339.21;;;;
2021/05/05 16:12:26;;;;;;;4.2;2.4;;;;;;;9.92;100;97326.7;;;;
2021/05/05 16:22:08;;;;;;;5.1;2.8;;;;;;;9.8;100;97326.66;;;;
2021/05/05 16:52:25;;;;;;;6.4;3.1;;;;;;;9.37;100;97310.94;;;;
2021/05/05 17:11:58;;;;;;;11;5;;;;;;;9.31;100;97343.73;;;;
2021/05/05 17:22:02;;;;;;;7.5;5.6;;;;;;;9.21;100;97361.06;;;;
2021/05/05 18:11:53;;;;;;;20.1;11;;;;;;;9.16;100;97416.92;;;;
2021/05/05 18:21:56;;;;;;;10.4;8.4;;;;;;;9.12;100;97427.54;;;;
2021/05/05 18:31:46;;;;;;;11.8;6.6;;;;;;;9.04;100;97464.1;;;;
2021/05/05 18:41:51;;;;;;;13;7.4;;;;;;;9.16;100;97482.23;;;;
2021/05/05 19:22:23;;;;;;;16.1;6.2;;;;;;;9.51;95.46875;97510.46;;;;
2021/05/05 21:11:51;;;;;;;5.1;2.4;;;;;;;6.07;100;97650.55;;;;
2021/05/05 23:11:25;;;;;;;5.9;2.5;;;;;;;6.31;100;97759.98;;;;
2021/05/05 23:31:15;;;;;;;3.2;1.5;;;;;;;6.23;100;97785.55;;;;
